Time;durP1;ratioP1;P1;durP2;ratioP2;P2;SDS_P1;SDS_P2;PMS_P1;PMS_P2;Temp;Humidity;BMP_temperature;BMP_pressure;BME280_temperature;BME280_humidity;BME280_pressure;Samples;Min_cycle;Max_cycle;Signal;HPM_P1;HPM_P2
2022/07/05 00:02:01;;;;;;;58.10;5.03;;;;;;;25.91;49.03;99698.28;7304388;19;129128;-39
2022/07/05 00:04:26;;;;;;;59.27;5.13;;;;;;;25.90;49.33;99704.53;7302179;19;130812;-40
2022/07/05 00:09:36;;;;;;;31.42;2.80;;;;;;;25.91;48.61;99702.72;7303198;19;130342;-39
2022/07/05 00:12:01;;;;;;;39.00;3.90;;;;;;;25.91;49.46;99703.56;7305367;19;130999;-42
2022/07/05 00:14:27;;;;;;;38.40;3.33;;;;;;;25.91;49.64;99698.28;7305792;19;129712;-42
2022/07/05 00:16:52;;;;;;;54.93;4.73;;;;;;;25.91;49.56;99697.47;7303013;19;130142;-40
2022/07/05 00:19:18;;;;;;;81.80;6.50;;;;;;;25.91;49.38;99695.66;7299626;19;131691;-37
2022/07/05 00:21:43;;;;;;;58.97;4.80;;;;;;;25.91;49.69;99700.09;7302171;19;130911;-42
2022/07/05 00:24:09;;;;;;;62.90;5.07;;;;;;;25.91;49.00;99690.41;7302611;19;131469;-42
2022/07/05 00:26:34;;;;;;;45.87;3.90;;;;;;;25.91;48.80;99693.03;7305645;19;129731;-42
2022/07/05 00:29:00;;;;;;;51.27;4.20;;;;;;;25.92;48.90;99691.19;7302640;19;130520;-41
2022/07/05 00:31:25;;;;;;;47.85;4.20;;;;;;;25.87;48.97;99673.25;7304527;19;130529;-41
2022/07/05 00:33:50;;;;;;;86.70;7.30;;;;;;;25.93;49.45;99679.69;7301970;19;130961;-39
2022/07/05 00:36:16;;;;;;;34.80;3.13;;;;;;;25.93;49.87;99677.88;7309457;19;129595;-37
2022/07/05 00:38:41;;;;;;;46.87;4.10;;;;;;;25.97;49.84;99689.72;7302731;19;129483;-38
2022/07/05 00:41:06;;;;;;;56.63;4.67;;;;;;;25.94;49.46;99687.44;7303210;19;129103;-42
2022/07/05 00:43:32;;;;;;;55.80;4.77;;;;;;;25.94;49.07;99684.78;7302719;19;130171;-40
2022/07/05 00:45:58;;;;;;;58.97;4.90;;;;;;;25.94;49.38;99687.44;7301256;19;130122;-40
2022/07/05 00:48:23;;;;;;;69.13;5.70;;;;;;;25.93;49.47;99687.59;7302302;19;130237;-40
2022/07/05 00:50:50;;;;;;;67.72;5.88;;;;;;;25.94;49.87;99689.22;7301399;19;131367;-41
2022/07/05 00:53:15;;;;;;;56.83;4.80;;;;;;;25.97;49.52;99695.00;7302020;19;130215;-41
2022/07/05 00:55:43;;;;;;;48.97;4.10;;;;;;;25.95;49.13;99696.16;7305270;19;131660;-39
2022/07/05 00:58:08;;;;;;;40.50;3.92;;;;;;;25.92;49.91;99681.50;7302313;19;129768;-41
2022/07/05 01:00:33;;;;;;;51.80;4.37;;;;;;;25.95;49.78;99683.78;7299576;19;130537;-40
2022/07/05 01:02:59;;;;;;;39.40;3.60;;;;;;;25.93;49.53;99683.16;7303738;19;130312;-40
2022/07/05 01:05:24;;;;;;;53.42;4.40;;;;;;;25.95;49.75;99689.06;7300831;19;130549;-41
2022/07/05 01:07:50;;;;;;;45.40;3.93;;;;;;;25.96;48.83;99677.56;7302759;19;130142;-40
2022/07/05 01:10:16;;;;;;;35.83;3.40;;;;;;;25.89;49.78;99666.03;7299661;19;130041;-39
2022/07/05 01:12:41;;;;;;;44.67;3.67;;;;;;;25.97;48.42;99678.34;7302190;19;129426;-42
2022/07/05 01:15:07;;;;;;;56.43;4.77;;;;;;;25.97;49.42;99678.34;7300338;19;129760;-41
2022/07/05 01:17:36;;;;;;;57.08;4.55;;;;;;;25.97;48.90;99683.63;7299196;19;130204;-36
2022/07/05 01:20:04;;;;;;;55.63;4.65;;;;;;;25.96;50.46;99679.34;7300692;19;131365;-41
2022/07/05 01:22:55;;;;;;;56.60;5.10;;;;;;;25.89;53.02;99666.03;7301498;19;130152;-42
2022/07/05 01:25:23;;;;;;;42.42;3.60;;;;;;;25.95;50.16;99681.16;7302067;19;130377;-41
2022/07/05 01:27:49;;;;;;;27.65;2.40;;;;;;;25.94;48.54;99682.16;7307171;19;129208;-37
2022/07/05 01:30:15;;;;;;;55.27;4.70;;;;;;;25.93;48.91;99674.41;7299424;19;131750;-41
2022/07/05 01:32:40;;;;;;;51.40;4.40;;;;;;;25.94;49.19;99679.53;7299592;19;132717;-39
2022/07/05 01:35:07;;;;;;;37.47;3.30;;;;;;;25.93;49.55;99682.31;7300192;19;130977;-41
2022/07/05 01:37:33;;;;;;;;;;;;;;;26.00;52.99;99676.22;7299117;19;129830;-39
2022/07/05 01:40:03;;;;;;;57.88;4.72;;;;;;;25.95;50.87;99680.34;7297595;19;131100;-40
2022/07/05 01:42:28;;;;;;;54.55;4.53;;;;;;;25.95;49.13;99681.16;7301495;19;131492;-41
2022/07/05 01:44:53;;;;;;;67.97;5.90;;;;;;;25.93;50.17;99683.16;7303315;19;130273;-41
2022/07/05 01:47:19;;;;;;;61.90;5.03;;;;;;;25.95;49.39;99685.63;7301286;19;130824;-40
2022/07/05 01:49:47;;;;;;;60.57;5.20;;;;;;;25.94;49.98;99684.78;7301274;19;130568;-41
2022/07/05 01:52:16;;;;;;;36.35;3.30;;;;;;;25.95;49.14;99682.97;7299115;19;129863;-36
2022/07/05 01:54:41;;;;;;;60.45;5.10;;;;;;;25.92;50.26;99686.75;7300273;19;130493;-42
2022/07/05 01:57:07;;;;;;;54.33;4.37;;;;;;;25.94;49.73;99684.78;7297888;19;129124;-41
2022/07/05 01:59:34;;;;;;;65.73;5.57;;;;;;;25.84;49.50;99678.88;7297706;19;131048;-41
2022/07/05 02:01:59;;;;;;;56.53;4.68;;;;;;;25.91;50.03;99687.75;7300001;19;131093;-37
2022/07/05 02:04:26;;;;;;;46.80;4.47;;;;;;;25.94;50.17;99690.06;7299925;19;130130;-40
2022/07/05 02:06:51;;;;;;;45.78;3.92;;;;;;;25.94;49.05;99690.06;7300629;19;130663;-41
2022/07/05 02:09:16;;;;;;;31.80;2.53;;;;;;;25.92;50.13;99681.50;7300630;19;129353;-41
2022/07/05 02:11:42;;;;;;;22.97;2.20;;;;;;;25.94;49.76;99683.97;7309642;19;129506;-40
2022/07/05 02:14:07;;;;;;;60.23;4.67;;;;;;;25.94;49.53;99687.44;7308552;19;130251;-41
2022/07/05 02:16:33;;;;;;;53.63;4.33;;;;;;;25.95;49.16;99678.53;7298936;19;130032;-40
2022/07/05 02:18:59;;;;;;;55.60;4.77;;;;;;;25.93;49.31;99683.16;7298995;19;131236;-41
2022/07/05 02:21:24;;;;;;;52.10;4.53;;;;;;;25.91;49.45;99679.84;7298929;19;132151;-38
2022/07/05 02:23:50;;;;;;;65.87;5.80;;;;;;;25.93;49.71;99677.06;7300091;19;130408;-41
2022/07/05 02:26:16;;;;;;;60.67;5.13;;;;;;;25.93;50.03;99671.78;7299043;19;130915;-42
2022/07/05 02:28:41;;;;;;;61.10;5.20;;;;;;;25.94;50.40;99679.53;7298401;19;130772;-41
2022/07/05 02:31:07;;;;;;;51.20;4.17;;;;;;;25.84;50.08;99663.06;7297949;19;129474;-37
2022/07/05 02:33:33;;;;;;;56.25;4.68;;;;;;;25.93;49.60;99672.63;7298464;19;131081;-41
2022/07/05 02:36:06;;;;;;;60.73;5.10;;;;;;;25.95;52.51;99681.16;7298781;19;129979;-39
2022/07/05 02:38:31;;;;;;;53.65;4.38;;;;;;;25.91;50.22;99682.50;7299843;19;130093;-42
2022/07/05 02:40:57;;;;;;;58.77;4.80;;;;;;;25.90;50.15;99680.81;7298927;19;130736;-44
2022/07/05 02:43:22;;;;;;;41.13;4.03;;;;;;;25.92;50.01;99681.50;7304502;19;130717;-42
2022/07/05 02:45:47;;;;;;;77.50;6.13;;;;;;;25.91;49.23;99679.03;7308495;19;130731;-40
2022/07/05 02:48:13;;;;;;;22.77;2.07;;;;;;;25.92;50.20;99680.66;7316058;19;129482;-37
2022/07/05 02:50:38;;;;;;;36.43;3.40;;;;;;;25.93;49.50;99677.06;7304951;19;130927;-42
2022/07/05 02:53:03;;;;;;;81.20;6.63;;;;;;;25.92;50.04;99684.13;7305216;19;132090;-38
2022/07/05 02:55:29;;;;;;;71.13;5.90;;;;;;;25.93;50.25;99684.97;7305864;19;130603;-41
2022/07/05 02:57:54;;;;;;;52.40;4.70;;;;;;;25.91;49.44;99679.84;7303939;19;131027;-39
2022/07/05 03:00:19;;;;;;;33.40;3.23;;;;;;;25.94;49.74;99678.69;7304307;19;131241;-40
2022/07/05 03:02:45;;;;;;;54.50;4.77;;;;;;;25.92;49.90;99686.75;7304541;19;130487;-39
2022/07/05 03:05:10;;;;;;;64.17;5.37;;;;;;;25.92;49.92;99689.38;7304086;19;130951;-40
2022/07/05 03:07:36;;;;;;;22.20;2.17;;;;;;;25.91;50.23;99687.75;7314180;19;129080;-36
2022/07/05 03:10:01;;;;;;;51.27;4.73;;;;;;;25.91;50.01;99685.13;7304018;19;131709;-41
2022/07/05 03:12:26;;;;;;;87.17;7.07;;;;;;;25.92;50.40;99699.94;7302612;19;130673;-41
2022/07/05 03:14:52;;;;;;;63.90;5.20;;;;;;;25.92;50.30;99697.28;7303456;19;130975;-40
2022/07/05 03:17:17;;;;;;;38.60;3.60;;;;;;;25.92;49.83;99699.94;7304575;19;130900;-41
2022/07/05 03:19:42;;;;;;;48.37;4.30;;;;;;;25.94;50.15;99694.50;7304853;19;130071;-39
2022/07/05 03:22:08;;;;;;;48.77;4.20;;;;;;;25.94;50.28;99697.97;7304707;19;130734;-40
2022/07/05 03:24:33;;;;;;;68.07;5.70;;;;;;;25.93;49.80;99696.31;7305023;19;130305;-39
2022/07/05 03:26:58;;;;;;;60.40;5.27;;;;;;;25.94;50.09;99700.59;7305452;19;130249;-40
2022/07/05 03:29:24;;;;;;;67.33;5.73;;;;;;;25.93;49.75;99704.22;7303473;19;130211;-40
2022/07/05 03:31:49;;;;;;;33.10;2.80;;;;;;;25.93;50.22;99706.88;7311180;19;130396;-39
2022/07/05 03:34:14;;;;;;;19.23;2.17;;;;;;;25.93;49.48;99704.22;7314401;19;129402;-41
2022/07/05 03:36:40;;;;;;;25.70;2.37;;;;;;;25.93;50.10;99701.59;7312586;19;129280;-41
2022/07/05 03:39:05;;;;;;;32.37;2.90;;;;;;;25.91;50.83;99711.47;7314404;19;131284;-39
2022/07/05 03:41:30;;;;;;;49.47;4.53;;;;;;;25.92;49.91;99712.28;7312439;19;129661;-39
2022/07/05 03:43:56;;;;;;;46.80;4.53;;;;;;;25.89;50.13;99708.16;7313668;19;129073;-41
2022/07/05 03:46:21;;;;;;;42.03;3.60;;;;;;;25.90;50.42;99709.00;7312607;19;130518;-41
2022/07/05 03:48:47;;;;;;;56.50;4.47;;;;;;;25.89;49.21;99713.44;7312901;19;130204;-38
2022/07/05 03:51:12;;;;;;;15.60;1.83;;;;;;;25.88;50.42;99722.34;7313169;19;131008;-42
2022/07/05 03:53:38;;;;;;;50.40;4.00;;;;;;;25.88;49.59;99724.13;7311643;19;131052;-41
2022/07/05 03:56:03;;;;;;;45.90;3.83;;;;;;;25.87;50.31;99720.66;7311279;19;129182;-40
2022/07/05 03:58:29;;;;;;;34.97;2.90;;;;;;;25.89;49.83;99723.97;7314080;19;129143;-41
2022/07/05 04:00:54;;;;;;;30.93;2.77;;;;;;;25.89;50.13;99720.50;7311855;19;130984;-42
2022/07/05 04:03:19;;;;;;;21.47;2.07;;;;;;;25.79;49.94;99711.94;7314309;19;129076;-39
2022/07/05 04:05:44;;;;;;;30.92;2.70;;;;;;;25.80;50.08;99724.94;7312228;19;129150;-41
2022/07/05 04:08:10;;;;;;;53.13;4.07;;;;;;;25.90;50.84;99736.16;7310356;19;129218;-38
2022/07/05 04:10:35;;;;;;;50.37;4.83;;;;;;;25.90;50.07;99736.16;7307483;19;130809;-41
2022/07/05 04:13:01;;;;;;;31.13;2.87;;;;;;;25.86;49.59;99734.84;7312747;19;129047;-41
2022/07/05 04:15:26;;;;;;;36.37;3.20;;;;;;;25.85;50.10;99738.44;7311992;19;129366;-41
2022/07/05 04:17:53;;;;;;;30.80;2.73;;;;;;;25.83;49.77;99740.44;7310881;19;129810;-40
2022/07/05 04:20:22;;;;;;;39.78;3.15;;;;;;;25.84;50.00;99742.09;7308074;19;131040;-39
2022/07/05 04:22:49;;;;;;;27.27;2.38;;;;;;;25.85;49.59;99743.72;7311914;19;129350;-41
2022/07/05 04:25:18;;;;;;;29.85;2.85;;;;;;;25.85;49.97;99753.44;7310448;19;130065;-41
2022/07/05 04:27:48;;;;;;;22.38;2.15;;;;;;;25.83;51.93;99756.25;7313035;19;129834;-41
2022/07/05 04:30:15;;;;;;;36.90;3.13;;;;;;;25.83;50.13;99748.34;7309478;19;130482;-41
2022/07/05 04:32:41;;;;;;;21.02;2.10;;;;;;;25.85;50.46;99748.19;7311853;19;128921;-40
2022/07/05 04:35:07;;;;;;;25.27;2.20;;;;;;;25.86;50.12;99753.28;7312614;19;129256;-37
2022/07/05 04:37:33;;;;;;;48.33;3.80;;;;;;;25.84;49.57;99749.97;7307367;19;130200;-40
2022/07/05 04:39:58;;;;;;;53.07;4.57;;;;;;;25.86;50.06;99758.56;7308960;19;130386;-40
2022/07/05 04:42:23;;;;;;;37.33;3.43;;;;;;;25.86;50.67;99755.91;7312011;19;129203;-41
2022/07/05 04:44:49;;;;;;;16.37;1.80;;;;;;;25.85;49.90;99759.53;7311614;19;128862;-38
2022/07/05 04:47:14;;;;;;;29.70;2.77;;;;;;;25.82;49.49;99757.22;7312222;19;130148;-41
2022/07/05 04:49:40;;;;;;;46.37;3.83;;;;;;;25.83;49.72;99764.16;7309007;19;129968;-40
2022/07/05 04:52:06;;;;;;;40.40;3.40;;;;;;;25.84;49.37;99757.88;7312386;19;129837;-42
2022/07/05 04:54:31;;;;;;;45.10;4.03;;;;;;;25.84;50.10;99767.59;7312198;19;129056;-40
2022/07/05 04:56:56;;;;;;;42.97;3.93;;;;;;;25.84;48.93;99770.22;7308671;19;130174;-41
2022/07/05 04:59:22;;;;;;;36.17;3.23;;;;;;;25.83;49.24;99772.06;7310393;19;129111;-41
2022/07/05 05:01:47;;;;;;;38.87;3.37;;;;;;;25.83;49.74;99771.22;7308851;19;130531;-41
2022/07/05 05:04:12;;;;;;;24.40;2.73;;;;;;;25.80;49.94;99764.44;7310188;19;129529;-41
2022/07/05 05:06:38;;;;;;;44.93;3.60;;;;;;;25.79;50.06;99768.09;7310988;19;130267;-41
2022/07/05 05:09:03;;;;;;;39.47;3.63;;;;;;;25.82;49.72;99778.28;7311389;19;129987;-39
2022/07/05 05:11:29;;;;;;;27.67;2.60;;;;;;;25.80;50.16;99777.63;7313051;19;128965;-42
2022/07/05 05:13:54;;;;;;;55.97;4.70;;;;;;;25.80;48.55;99782.09;7308563;19;129973;-41
2022/07/05 05:16:20;;;;;;;23.73;2.10;;;;;;;25.76;49.13;99770.22;7311146;19;129549;-37
2022/07/05 05:18:45;;;;;;;30.33;2.73;;;;;;;25.79;48.96;99775.97;7309919;19;129212;-42
2022/07/05 05:21:11;;;;;;;21.07;2.07;;;;;;;25.70;49.03;99751.44;7308806;19;128999;-41
2022/07/05 05:23:36;;;;;;;40.83;3.47;;;;;;;25.78;49.47;99773.53;7311436;19;129678;-41
2022/07/05 05:26:01;;;;;;;38.57;3.17;;;;;;;25.76;49.67;99776.31;7306680;19;129068;-41
2022/07/05 05:28:27;;;;;;;35.83;3.33;;;;;;;25.77;49.05;99764.78;7311545;19;130312;-41
2022/07/05 05:30:52;;;;;;;37.33;3.13;;;;;;;25.79;49.32;99773.34;7310193;19;129700;-40
2022/07/05 05:33:18;;;;;;;24.43;2.37;;;;;;;25.78;49.00;99773.53;7312972;19;129069;-41
2022/07/05 05:35:43;;;;;;;20.77;2.07;;;;;;;25.77;48.82;99770.06;7312678;19;129645;-41
2022/07/05 05:38:08;;;;;;;43.63;3.53;;;;;;;25.74;48.87;99767.75;7308678;19;129252;-39
2022/07/05 05:40:36;;;;;;;30.67;2.90;;;;;;;25.76;49.03;99768.41;7308634;19;129685;-41
2022/07/05 05:43:01;;;;;;;38.22;3.40;;;;;;;25.73;49.09;99771.38;7312435;19;129094;-40
2022/07/05 05:45:26;;;;;;;43.80;3.50;;;;;;;25.74;49.23;99765.13;7309126;19;129391;-39
2022/07/05 05:47:54;;;;;;;44.00;3.67;;;;;;;25.77;49.56;99767.41;7307689;19;130908;-41
2022/07/05 05:50:32;;;;;;;45.80;4.43;;;;;;;25.72;52.10;99769.72;7305790;19;129685;-37
2022/07/05 05:52:58;;;;;;;37.10;3.35;;;;;;;25.73;49.21;99770.53;7309261;19;129037;-42
2022/07/05 05:55:25;;;;;;;28.38;2.67;;;;;;;25.73;48.44;99766.13;7311162;19;131584;-42
2022/07/05 05:57:50;;;;;;;;;;;;;;;25.83;52.46;99774.69;7309694;19;129424;-41
2022/07/05 06:00:17;;;;;;;32.05;2.88;;;;;;;25.79;48.77;99775.97;7308340;19;128963;-41
2022/07/05 06:02:43;;;;;;;22.65;2.33;;;;;;;25.76;48.23;99781.59;7311206;19;129119;-41
2022/07/05 06:05:09;;;;;;;22.83;2.38;;;;;;;25.77;48.71;99775.31;7307816;19;129114;-40
2022/07/05 06:07:51;;;;;;;33.40;2.97;;;;;;;25.78;51.98;99782.25;7309229;19;130995;-42
2022/07/05 06:10:29;;;;;;;32.75;3.05;;;;;;;25.74;48.75;99788.81;7308340;19;128788;-41
2022/07/05 06:12:56;;;;;;;40.67;3.72;;;;;;;25.63;49.29;99766.22;7309273;19;129174;-39
2022/07/05 06:15:22;;;;;;;26.52;2.45;;;;;;;25.73;48.35;99786.34;7310313;19;129060;-40
2022/07/05 06:17:48;;;;;;;32.03;2.97;;;;;;;25.72;47.48;99785.50;7312372;19;131477;-40
2022/07/05 06:20:22;;;;;;;36.50;3.03;;;;;;;25.73;50.70;99792.44;7317063;19;130812;-41
2022/07/05 06:22:50;;;;;;;21.67;2.20;;;;;;;25.70;48.78;99787.50;7317957;19;128984;-40
2022/07/05 06:25:16;;;;;;;33.60;2.80;;;;;;;25.71;48.44;99789.16;7313724;19;130954;-40
2022/07/05 06:27:44;;;;;;;13.03;1.60;;;;;;;25.71;48.03;99791.78;7317703;19;130488;-41
2022/07/05 06:30:10;;;;;;;36.75;3.25;;;;;;;25.69;47.82;99794.56;7313728;19;129037;-38
2022/07/05 06:32:36;;;;;;;30.45;2.95;;;;;;;25.68;48.00;99790.28;7317981;19;129689;-41
2022/07/05 06:35:02;;;;;;;35.40;3.10;;;;;;;25.69;48.39;99796.38;7316877;19;130344;-42
2022/07/05 06:37:27;;;;;;;25.83;2.40;;;;;;;25.70;48.60;99795.41;7316798;19;130320;-42
2022/07/05 06:39:53;;;;;;;33.93;3.27;;;;;;;25.69;48.37;99806.91;7316333;19;129148;-41
2022/07/05 06:42:18;;;;;;;19.77;2.17;;;;;;;25.68;49.42;99805.28;7317041;19;129196;-41
2022/07/05 06:44:43;;;;;;;14.80;1.97;;;;;;;25.68;48.08;99792.09;7317416;19;129535;-41
2022/07/05 06:47:10;;;;;;;23.73;2.37;;;;;;;25.67;49.01;99798.34;7316878;19;129248;-41
2022/07/05 06:49:35;;;;;;;35.55;3.40;;;;;;;25.64;48.08;99799.50;7315790;19;129115;-41
2022/07/05 06:52:01;;;;;;;43.03;3.60;;;;;;;25.64;48.09;99802.13;7316566;19;129399;-40
2022/07/05 06:54:26;;;;;;;30.43;3.03;;;;;;;25.64;48.40;99799.50;7316711;19;131456;-41
2022/07/05 06:56:53;;;;;;;32.43;3.03;;;;;;;25.59;49.06;99788.63;7315723;19;131199;-41
2022/07/05 06:59:18;;;;;;;;;;;;;;;25.71;51.49;99804.94;7316077;19;131011;-41
2022/07/05 07:01:43;;;;;;;26.67;2.47;;;;;;;25.65;48.33;99806.41;7316290;19;128847;-40
2022/07/05 07:04:09;;;;;;;30.50;3.00;;;;;;;25.63;48.50;99799.66;7316833;19;129556;-41
2022/07/05 07:06:34;;;;;;;29.10;2.83;;;;;;;25.62;48.18;99795.38;7316219;19;129203;-41
2022/07/05 07:09:18;;;;;;;29.47;2.87;;;;;;;25.63;47.89;99804.94;7315276;19;128803;-41
2022/07/05 07:11:44;;;;;;;20.65;1.98;;;;;;;25.62;48.08;99804.09;7315897;19;129350;-42
2022/07/05 07:14:09;;;;;;;38.20;3.30;;;;;;;25.59;48.09;99809.69;7314412;19;130905;-39
2022/07/05 07:16:35;;;;;;;23.47;2.50;;;;;;;25.61;47.21;99804.25;7315715;19;129238;-41
2022/07/05 07:19:00;;;;;;;35.27;3.27;;;;;;;25.54;48.89;99797.97;7315633;19;129347;-41
2022/07/05 07:21:26;;;;;;;38.37;3.20;;;;;;;25.56;48.15;99807.38;7314509;19;128918;-40
2022/07/05 07:23:51;;;;;;;60.90;5.10;;;;;;;25.58;47.96;99800.13;7315276;19;129403;-42
2022/07/05 07:26:17;;;;;;;25.33;2.13;;;;;;;25.58;48.32;99805.38;7315516;19;131632;-42
2022/07/05 07:28:42;;;;;;;26.83;2.77;;;;;;;25.56;47.62;99801.28;7314292;19;128968;-41
2022/07/05 07:31:08;;;;;;;27.80;2.70;;;;;;;25.56;46.32;99796.00;7315750;19;129406;-41
2022/07/05 07:33:33;;;;;;;32.83;3.07;;;;;;;25.56;47.10;99796.00;7315167;19;130279;-41
2022/07/05 07:35:59;;;;;;;39.97;3.37;;;;;;;25.58;46.66;99799.31;7312721;19;129204;-41
2022/07/05 07:38:25;;;;;;;38.93;3.57;;;;;;;25.58;46.83;99794.84;7312269;19;129382;-39
2022/07/05 07:40:51;;;;;;;30.80;3.08;;;;;;;25.59;46.79;99795.69;7313921;19;128943;-40
2022/07/05 07:43:16;;;;;;;35.33;3.37;;;;;;;25.51;46.39;99782.50;7314447;19;129870;-40
2022/07/05 07:45:42;;;;;;;50.70;4.28;;;;;;;25.59;47.76;99786.00;7314333;19;129296;-40
2022/07/05 07:48:08;;;;;;;24.03;2.50;;;;;;;25.61;46.87;99791.09;7313555;19;129089;-41
2022/07/05 07:50:33;;;;;;;31.77;2.90;;;;;;;25.60;47.15;99786.81;7312828;19;129107;-41
2022/07/05 07:52:59;;;;;;;34.63;2.93;;;;;;;25.64;47.85;99783.69;7315504;19;130773;-39
2022/07/05 07:55:24;;;;;;;27.00;2.43;;;;;;;25.64;46.87;99788.13;7313642;19;129807;-41
2022/07/05 07:57:49;;;;;;;44.70;3.80;;;;;;;25.65;47.50;99787.16;7311023;19;130756;-38
2022/07/05 08:00:15;;;;;;;28.50;2.63;;;;;;;25.65;46.49;99785.34;7313421;19;131199;-41
2022/07/05 08:02:40;;;;;;;25.27;2.20;;;;;;;25.62;46.97;99784.84;7311841;19;130411;-41
2022/07/05 08:05:09;;;;;;;27.23;2.27;;;;;;;25.64;46.68;99788.97;7314159;19;130289;-40
2022/07/05 08:07:35;;;;;;;60.25;4.70;;;;;;;25.66;47.25;99786.16;7313287;19;129859;-36
2022/07/05 08:10:00;;;;;;;22.50;2.13;;;;;;;25.66;46.95;99786.16;7311422;19;129309;-40
2022/07/05 08:12:25;;;;;;;43.20;3.57;;;;;;;25.63;46.66;99787.28;7313640;19;129969;-41
2022/07/05 08:14:51;;;;;;;25.88;2.22;;;;;;;25.64;48.27;99788.97;7311868;19;130281;-42
2022/07/05 08:17:16;;;;;;;22.40;2.07;;;;;;;25.63;46.66;99794.41;7313373;19;129478;-42
2022/07/05 08:22:26;;;;;;;27.73;2.65;;;;;;;25.54;47.04;99780.38;7314687;19;129155;-41
2022/07/05 08:24:51;;;;;;;40.90;3.57;;;;;;;25.60;46.67;99792.09;7312720;19;129391;-42
2022/07/05 08:27:17;;;;;;;18.60;1.77;;;;;;;25.63;46.41;99783.88;7314394;19;128990;-42
2022/07/05 08:29:43;;;;;;;22.80;2.03;;;;;;;25.61;46.26;99788.47;7312003;19;128948;-42
2022/07/05 08:32:09;;;;;;;26.13;2.17;;;;;;;25.49;46.84;99769.50;7314437;19;128966;-41
2022/07/05 08:34:35;;;;;;;32.80;2.72;;;;;;;25.57;47.04;99777.41;7314289;19;129410;-41
2022/07/05 08:37:00;;;;;;;49.13;4.00;;;;;;;25.62;45.86;99783.03;7312722;19;128973;-40
2022/07/05 08:39:26;;;;;;;40.30;3.43;;;;;;;25.62;46.20;99776.94;7309184;19;128872;-41
2022/07/05 08:41:52;;;;;;;25.93;2.40;;;;;;;25.59;47.04;99779.91;7313966;19;130175;-42
2022/07/05 08:44:19;;;;;;;24.37;2.00;;;;;;;25.51;46.62;99766.72;7314318;19;130639;-42
2022/07/05 08:46:47;;;;;;;20.90;1.80;;;;;;;25.45;46.53;99767.38;7313954;19;128897;-38
2022/07/05 08:49:14;;;;;;;22.52;2.15;;;;;;;25.54;46.33;99787.44;7312135;19;129107;-42
2022/07/05 08:51:41;;;;;;;23.40;1.92;;;;;;;25.56;46.22;99790.75;7313603;19;130127;-41
2022/07/05 08:54:11;;;;;;;37.03;3.33;;;;;;;25.54;47.41;99787.44;7311972;19;130412;-39
2022/07/05 08:56:37;;;;;;;27.80;2.17;;;;;;;25.54;46.07;99779.53;7313623;19;129188;-39
2022/07/05 08:59:03;;;;;;;26.43;2.47;;;;;;;25.55;46.24;99781.22;7310029;19;129313;-41
2022/07/05 09:01:34;;;;;;;27.33;2.45;;;;;;;25.53;45.96;99770.00;7313288;19;129265;-41
2022/07/05 09:04:02;;;;;;;37.05;3.13;;;;;;;25.53;47.42;99783.19;7312725;19;130264;-40
2022/07/05 09:06:28;;;;;;;30.33;2.65;;;;;;;25.40;47.09;99764.38;7312187;19;128775;-39
2022/07/05 09:08:55;;;;;;;30.55;2.58;;;;;;;25.50;47.43;99780.88;7312065;19;128918;-42
2022/07/05 09:11:37;;;;;;;21.92;1.70;;;;;;;25.44;50.45;99761.25;7313304;19;129485;-40
2022/07/05 09:14:04;;;;;;;31.50;2.50;;;;;;;25.55;46.67;99762.78;7313226;19;130312;-41
2022/07/05 09:16:31;;;;;;;29.88;2.95;;;;;;;25.55;46.24;99757.50;7314003;19;128973;-42
2022/07/05 09:19:04;;;;;;;35.05;3.10;;;;;;;25.58;46.21;99762.47;7308515;19;129479;-41
2022/07/05 09:21:29;;;;;;;37.13;2.85;;;;;;;25.58;45.74;99767.72;7313653;19;131785;-41
2022/07/05 09:24:00;;;;;;;56.30;4.70;;;;;;;25.53;47.82;99765.59;7311448;19;129056;-41
2022/07/05 09:26:35;;;;;;;24.77;2.13;;;;;;;25.53;48.37;99767.38;7311983;19;129253;-41
2022/07/05 09:29:05;;;;;;;28.00;2.17;;;;;;;25.57;46.28;99761.63;7310783;19;128917;-40
2022/07/05 09:31:36;;;;;;;37.65;3.28;;;;;;;25.51;46.63;99761.44;7312215;19;130135;-41
2022/07/05 09:34:06;;;;;;;37.80;2.92;;;;;;;25.53;46.48;99759.47;7312376;19;129651;-42
2022/07/05 09:36:53;;;;;;;30.27;2.58;;;;;;;25.53;49.52;99764.75;7312095;19;128854;-42
2022/07/05 09:39:37;;;;;;;46.60;3.58;;;;;;;25.56;49.81;99767.88;7309774;19;129296;-40
2022/07/05 09:42:23;;;;;;;46.17;3.70;;;;;;;25.54;49.38;99764.59;7310700;19;130343;-39
2022/07/05 09:44:53;;;;;;;36.03;2.70;;;;;;;25.55;47.64;99765.41;7311713;19;129673;-40
2022/07/05 09:47:21;;;;;;;23.60;1.85;;;;;;;25.57;45.49;99759.00;7311892;19;129017;-40
2022/07/05 09:49:48;;;;;;;19.45;1.63;;;;;;;25.55;44.76;99762.78;7309441;19;129075;-39
2022/07/05 09:52:28;;;;;;;;;;;;;;;25.56;49.83;99762.63;7315479;19;130400;-42
2022/07/05 09:55:10;;;;;;;32.63;2.63;;;;;;;25.54;48.32;99766.38;7317537;19;131435;-41
2022/07/05 09:57:40;;;;;;;51.58;4.35;;;;;;;25.50;45.77;99765.06;7315580;19;129406;-41
2022/07/05 10:00:11;;;;;;;30.67;2.65;;;;;;;25.52;45.53;99763.09;7315352;19;129199;-41
2022/07/05 10:02:42;;;;;;;63.67;4.72;;;;;;;25.49;46.34;99758.97;7317397;19;130742;-40
2022/07/05 10:05:18;;;;;;;34.83;2.60;;;;;;;25.48;48.75;99757.34;7316770;19;130928;-40
2022/07/05 10:07:47;;;;;;;57.60;4.10;;;;;;;25.54;45.42;99766.38;7316153;19;129104;-42
2022/07/05 10:10:14;;;;;;;21.48;1.80;;;;;;;25.54;44.96;99763.75;7317107;19;129194;-40
2022/07/05 10:12:40;;;;;;;;;;;;;;;25.57;48.84;99766.06;7318542;19;131259;-42
2022/07/05 10:15:09;;;;;;;29.92;2.55;;;;;;;25.54;45.30;99766.38;7318236;19;130306;-42
2022/07/05 10:17:37;;;;;;;43.55;3.78;;;;;;;25.52;46.24;99758.66;7317095;19;128826;-40
2022/07/05 10:20:22;;;;;;;34.28;2.83;;;;;;;25.51;47.80;99757.00;7316938;19;129255;-41
2022/07/05 10:22:48;;;;;;;27.70;2.20;;;;;;;25.45;45.04;99751.56;7318637;19;129307;-40
2022/07/05 10:25:14;;;;;;;23.33;2.10;;;;;;;25.56;45.51;99764.41;7317106;19;129702;-42
2022/07/05 10:27:39;;;;;;;28.87;2.53;;;;;;;25.54;45.38;99766.38;7317358;19;128983;-40
2022/07/05 10:30:07;;;;;;;58.00;4.73;;;;;;;25.54;45.50;99766.38;7313723;19;128898;-42
2022/07/05 10:32:33;;;;;;;26.88;2.28;;;;;;;25.53;44.86;99765.59;7317554;19;131393;-41
2022/07/05 10:34:59;;;;;;;;;;;;;;;25.56;48.83;99761.78;7317469;19;129651;-40
2022/07/05 10:37:28;;;;;;;40.53;3.45;;;;;;;25.58;45.13;99752.72;7316493;19;129148;-40
2022/07/05 10:39:58;;;;;;;20.48;1.98;;;;;;;25.55;45.04;99754.88;7316085;19;129875;-42
2022/07/05 10:42:27;;;;;;;31.80;2.83;;;;;;;25.53;45.21;99755.06;7317663;19;130267;-42
2022/07/05 10:44:52;;;;;;;26.92;2.35;;;;;;;25.54;44.86;99755.84;7316600;19;130299;-40
2022/07/05 10:47:19;;;;;;;21.10;2.07;;;;;;;25.54;44.91;99759.31;7317302;19;128930;-40
2022/07/05 10:50:00;;;;;;;24.38;2.05;;;;;;;25.55;47.91;99762.78;7315852;19;129624;-41
2022/07/05 10:52:26;;;;;;;33.85;2.92;;;;;;;25.54;44.96;99747.94;7316429;19;130708;-41
2022/07/05 10:55:16;;;;;;;36.17;3.13;;;;;;;25.51;48.00;99767.53;7316036;19;130400;-41
2022/07/05 10:57:42;;;;;;;24.42;2.05;;;;;;;25.51;44.30;99762.28;7314913;19;129469;-41
2022/07/05 11:00:09;;;;;;;9.53;1.10;;;;;;;25.55;44.15;99768.06;7315073;19;128842;-41
2022/07/05 11:02:35;;;;;;;27.95;2.47;;;;;;;25.53;42.87;99754.22;7314863;19;130403;-39
2022/07/05 11:05:01;;;;;;;19.10;2.00;;;;;;;25.51;44.26;99750.91;7315410;19;130304;-41
2022/07/05 11:07:58;;;;;;;51.35;4.20;;;;;;;25.48;48.46;99746.81;7315845;19;128946;-41
2022/07/05 11:10:23;;;;;;;25.80;2.15;;;;;;;25.51;45.67;99750.91;7312806;19;129699;-43
2022/07/05 11:12:49;;;;;;;36.23;2.87;;;;;;;25.52;45.84;99758.66;7316013;19;130161;-41
2022/07/05 11:15:14;;;;;;;27.83;2.43;;;;;;;25.54;45.50;99755.84;7314427;19;130476;-41
2022/07/05 11:17:40;;;;;;;28.97;2.77;;;;;;;25.54;44.91;99754.06;7314328;19;128938;-39
2022/07/05 11:20:11;;;;;;;35.53;3.27;;;;;;;25.53;46.54;99764.75;7311709;19;128900;-41
2022/07/05 11:22:41;;;;;;;29.42;2.58;;;;;;;25.53;44.98;99762.13;7316250;19;130480;-42
2022/07/05 11:25:09;;;;;;;39.67;3.13;;;;;;;25.53;45.64;99757.69;7315651;19;130405;-41